sensor_id;sensor_type;location;lat;lon;timestamp;P1;durP1;ratioP1;P2;durP2;ratioP2
21448;SDS011;10885;52.830;13.788;2023-11-21T06:22:33;7.22;;;3.95;;
21448;SDS011;10885;52.830;13.788;2023-11-21T06:27:42;7.20;;;3.83;;
21448;SDS011;10885;52.830;13.788;2023-11-21T06:32:46;8.95;;;4.15;;
21448;SDS011;10885;52.830;13.788;2023-11-21T06:37:50;10.98;;;4.82;;
21448;SDS011;10885;52.830;13.788;2023-11-21T06:42:54;11.98;;;5.30;;
21448;SDS011;10885;52.830;13.788;2023-11-21T06:47:56;12.55;;;5.75;;
21448;SDS011;10885;52.830;13.788;2023-11-21T06:52:59;11.07;;;5.10;;
21448;SDS011;10885;52.830;13.788;2023-11-21T06:58:02;15.52;;;6.45;;
21448;SDS011;10885;52.830;13.788;2023-11-21T07:03:04;27.50;;;9.45;;
21448;SDS011;10885;52.830;13.788;2023-11-21T07:08:07;24.08;;;9.80;;
21448;SDS011;10885;52.830;13.788;2023-11-21T07:13:10;18.77;;;7.30;;
21448;SDS011;10885;52.830;13.788;2023-11-21T07:18:14;26.27;;;10.20;;
21448;SDS011;10885;52.830;13.788;2023-11-21T07:23:17;25.45;;;9.45;;
21448;SDS011;10885;52.830;13.788;2023-11-21T07:28:20;17.60;;;7.05;;
21448;SDS011;10885;52.830;13.788;2023-11-21T07:33:23;15.57;;;5.45;;
21448;SDS011;10885;52.830;13.788;2023-11-21T07:38:26;12.65;;;5.22;;
21448;SDS011;10885;52.830;13.788;2023-11-21T07:43:30;10.05;;;4.55;;
21448;SDS011;10885;52.830;13.788;2023-11-21T07:48:41;8.05;;;3.35;;
21448;SDS011;10885;52.830;13.788;2023-11-21T07:53:44;6.97;;;3.33;;
21448;SDS011;10885;52.830;13.788;2023-11-21T07:58:47;4.35;;;2.40;;
21448;SDS011;10885;52.830;13.788;2023-11-21T19:28:58;6.20;;;3.30;;
21448;SDS011;10885;52.830;13.788;2023-11-21T19:34:01;6.65;;;3.17;;
21448;SDS011;10885;52.830;13.788;2023-11-21T19:39:03;3.80;;;2.70;;
21448;SDS011;10885;52.830;13.788;2023-11-21T19:44:06;7.13;;;2.67;;
21448;SDS011;10885;52.830;13.788;2023-11-21T19:49:09;4.95;;;3.15;;
21448;SDS011;10885;52.830;13.788;2023-11-21T19:54:13;4.00;;;2.70;;
21448;SDS011;10885;52.830;13.788;2023-11-21T19:59:15;7.57;;;3.63;;
21448;SDS011;10885;52.830;13.788;2023-11-21T20:04:19;4.80;;;3.25;;
21448;SDS011;10885;52.830;13.788;2023-11-21T20:09:22;4.60;;;3.10;;
21448;SDS011;10885;52.830;13.788;2023-11-21T20:14:25;5.43;;;3.15;;
21448;SDS011;10885;52.830;13.788;2023-11-21T20:19:31;5.53;;;3.08;;
21448;SDS011;10885;52.830;13.788;2023-11-21T20:24:33;5.20;;;3.08;;
21448;SDS011;10885;52.830;13.788;2023-11-21T20:29:37;4.10;;;2.83;;
21448;SDS011;10885;52.830;13.788;2023-11-21T20:34:42;4.72;;;2.72;;
21448;SDS011;10885;52.830;13.788;2023-11-21T20:39:45;4.97;;;2.58;;
21448;SDS011;10885;52.830;13.788;2023-11-21T20:44:50;4.32;;;2.55;;
21448;SDS011;10885;52.830;13.788;2023-11-21T20:49:53;8.05;;;3.38;;
21448;SDS011;10885;52.830;13.788;2023-11-21T20:55:00;4.15;;;2.42;;
21448;SDS011;10885;52.830;13.788;2023-11-21T21:00:05;4.85;;;2.80;;
21448;SDS011;10885;52.830;13.788;2023-11-21T21:05:12;4.22;;;2.72;;
21448;SDS011;10885;52.830;13.788;2023-11-21T21:10:17;4.40;;;3.08;;
21448;SDS011;10885;52.830;13.788;2023-11-21T21:15:20;5.80;;;4.03;;
21448;SDS011;10885;52.830;13.788;2023-11-21T21:20:22;6.60;;;4.30;;
21448;SDS011;10885;52.830;13.788;2023-11-21T21:25:25;4.93;;;3.05;;
21448;SDS011;10885;52.830;13.788;2023-11-21T21:30:28;4.75;;;2.92;;
21448;SDS011;10885;52.830;13.788;2023-11-21T21:35:31;5.18;;;2.92;;
21448;SDS011;10885;52.830;13.788;2023-11-21T21:40:34;4.78;;;2.65;;
21448;SDS011;10885;52.830;13.788;2023-11-21T21:45:37;4.28;;;2.92;;
21448;SDS011;10885;52.830;13.788;2023-11-21T21:50:40;4.63;;;3.15;;
21448;SDS011;10885;52.830;13.788;2023-11-21T21:55:43;3.10;;;2.38;;
21448;SDS011;10885;52.830;13.788;2023-11-21T22:00:45;3.72;;;2.72;;
21448;SDS011;10885;52.830;13.788;2023-11-21T22:05:48;5.22;;;3.08;;
21448;SDS011;10885;52.830;13.788;2023-11-21T22:10:51;3.33;;;2.30;;
21448;SDS011;10885;52.830;13.788;2023-11-21T22:15:54;4.13;;;2.90;;
21448;SDS011;10885;52.830;13.788;2023-11-21T22:20:56;5.97;;;3.20;;
21448;SDS011;10885;52.830;13.788;2023-11-21T22:25:59;7.70;;;3.92;;
21448;SDS011;10885;52.830;13.788;2023-11-21T22:31:02;5.68;;;2.95;;
21448;SDS011;10885;52.830;13.788;2023-11-21T22:36:04;3.30;;;2.20;;
21448;SDS011;10885;52.830;13.788;2023-11-21T22:41:08;2.35;;;1.73;;
